Time;durP1;ratioP1;P1;durP2;ratioP2;P2;SDS_P1;SDS_P2;PMS_P1;PMS_P2;Temp;Humidity;BMP_temperature;BMP_pressure;BME280_temperature;BME280_humidity;BME280_pressure;Samples;Min_cycle;Max_cycle;Signal;HPM_P1;HPM_P2
2022/06/30 00:01:18;;;;;;;11.38;10.15;;;;;;;;;;1857684;77;26771;-44
2022/06/30 00:03:45;;;;;;;12.18;10.93;;;;;;;;;;1851963;76;26686;-44
2022/06/30 00:06:12;;;;;;;11.73;10.53;;;;;;;;;;1864104;76;26778;-50
2022/06/30 00:08:39;;;;;;;11.75;10.63;;;;;;;;;;1868352;75;26265;-48
2022/06/30 00:11:07;;;;;;;11.30;10.20;;;;;;;;;;1861192;77;26802;-46
2022/06/30 00:13:36;;;;;;;11.78;10.58;;;;;;;;;;1862946;75;26249;-47
2022/06/30 00:16:03;;;;;;;12.10;10.95;;;;;;;;;;1860059;75;26358;-49
2022/06/30 00:18:30;;;;;;;11.30;10.20;;;;;;;;;;1857192;75;26286;-44
2022/06/30 00:20:58;;;;;;;13.65;11.20;;;;;;;;;;1863986;77;26256;-44
2022/06/30 00:23:26;;;;;;;11.85;10.65;;;;;;;;;;1863268;77;26298;-47
2022/06/30 00:25:53;;;;;;;12.37;11.08;;;;;;;;;;1851097;75;27432;-53
2022/06/30 00:28:21;;;;;;;12.05;10.58;;;;;;;;;;1855551;75;26330;-46
2022/06/30 00:30:49;;;;;;;12.23;11.03;;;;;;;;;;1854131;77;26673;-46
2022/06/30 00:33:16;;;;;;;13.55;11.48;;;;;;;;;;1866661;76;26364;-48
2022/06/30 00:35:44;;;;;;;12.47;11.25;;;;;;;;;;1863000;75;26830;-44
2022/06/30 00:38:11;;;;;;;12.30;11.10;;;;;;;;;;1853832;75;26331;-55
2022/06/30 00:40:40;;;;;;;12.18;10.90;;;;;;;;;;1857334;77;26256;-49
2022/06/30 00:43:07;;;;;;;12.07;10.88;;;;;;;;;;1861520;77;26640;-46
2022/06/30 00:45:36;;;;;;;11.90;10.65;;;;;;;;;;1862753;76;26294;-44
2022/06/30 00:48:03;;;;;;;12.43;11.12;;;;;;;;;;1860520;76;26299;-58
2022/06/30 00:50:31;;;;;;;12.00;10.80;;;;;;;;;;1856283;76;26811;-50
2022/06/30 00:53:01;;;;;;;12.45;10.70;;;;;;;;;;1857772;76;26293;-45
2022/06/30 00:55:28;;;;;;;11.53;10.43;;;;;;;;;;1864094;77;26347;-49
2022/06/30 00:57:57;;;;;;;11.60;10.25;;;;;;;;;;1861205;77;26723;-44
2022/06/30 01:00:24;;;;;;;13.15;11.30;;;;;;;;;;1834791;75;26284;-46
2022/06/30 01:02:52;;;;;;;11.83;10.72;;;;;;;;;;1859923;77;26693;-47
2022/06/30 01:05:21;;;;;;;14.80;12.40;;;;;;;;;;1852869;77;26266;-44
2022/06/30 01:07:49;;;;;;;14.18;12.35;;;;;;;;;;1853189;76;26355;-44
2022/06/30 01:13:03;;;;;;;13.15;11.73;;;;;;;;;;1871787;76;26271;-44
2022/06/30 01:15:30;;;;;;;14.35;12.18;;;;;;;;;;1855360;76;26404;-45
2022/06/30 01:17:58;;;;;;;14.53;12.95;;;;;;;;;;1857305;76;26248;-46
2022/06/30 01:20:27;;;;;;;14.13;12.60;;;;;;;;;;1862984;76;26309;-42
2022/06/30 01:22:54;;;;;;;15.03;12.43;;;;;;;;;;1853434;76;26740;-43
2022/06/30 01:25:22;;;;;;;15.95;12.37;;;;;;;;;;1857431;76;26271;-46
2022/06/30 01:27:49;;;;;;;17.48;14.23;;;;;;;;;;1870752;76;26264;-43
2022/06/30 01:30:16;;;;;;;17.32;13.65;;;;;;;;;;1867966;76;26344;-43
2022/06/30 01:32:44;;;;;;;16.32;13.62;;;;;;;;;;1858699;76;26257;-45
2022/06/30 01:35:11;;;;;;;14.70;12.90;;;;;;;;;;1858294;76;26693;-44
2022/06/30 01:37:49;;;;;;;15.40;13.43;;;;;;;;;;1860878;76;26346;-46
2022/06/30 01:40:17;;;;;;;16.32;13.58;;;;;;;;;;1859226;76;26274;-51
2022/06/30 01:42:44;;;;;;;15.28;13.15;;;;;;;;;;1855753;77;26339;-43
2022/06/30 01:45:12;;;;;;;15.68;12.90;;;;;;;;;;1855032;76;26246;-45
2022/06/30 01:47:39;;;;;;;27.48;14.10;;;;;;;;;;1850979;77;26261;-45
2022/06/30 01:50:08;;;;;;;17.12;14.13;;;;;;;;;;1850871;76;26634;-47
2022/06/30 01:52:36;;;;;;;19.05;14.05;;;;;;;;;;1856707;76;26807;-46
2022/06/30 01:55:03;;;;;;;16.67;14.13;;;;;;;;;;1855033;77;25685;-48
2022/06/30 01:57:30;;;;;;;18.35;14.28;;;;;;;;;;1850264;76;26408;-46
2022/06/30 01:59:59;;;;;;;17.00;14.63;;;;;;;;;;1844381;76;26222;-47
2022/06/30 02:02:26;;;;;;;17.55;13.95;;;;;;;;;;1857663;77;26245;-47
2022/06/30 02:04:54;;;;;;;17.15;14.78;;;;;;;;;;1854032;77;26821;-45
2022/06/30 02:07:22;;;;;;;17.45;14.38;;;;;;;;;;1857271;77;26206;-43
2022/06/30 02:09:54;;;;;;;16.95;13.98;;;;;;;;;;1863182;76;26384;-43
2022/06/30 02:15:06;;;;;;;14.83;13.22;;;;;;;;;;1857105;76;26263;-48
2022/06/30 02:17:33;;;;;;;16.15;13.83;;;;;;;;;;1861494;76;26768;-52
2022/06/30 02:20:00;;;;;;;16.32;13.88;;;;;;;;;;1860588;76;26898;-49
2022/06/30 02:22:28;;;;;;;16.42;13.30;;;;;;;;;;1866456;76;26261;-48
2022/06/30 02:24:55;;;;;;;14.98;13.38;;;;;;;;;;1859292;77;26786;-43
2022/06/30 02:27:24;;;;;;;14.83;13.10;;;;;;;;;;1857659;76;26319;-43
2022/06/30 02:29:52;;;;;;;15.03;13.30;;;;;;;;;;1857032;76;26623;-46
2022/06/30 02:32:20;;;;;;;16.77;14.30;;;;;;;;;;1863711;76;26328;-48
2022/06/30 02:34:48;;;;;;;15.13;13.15;;;;;;;;;;1860789;76;26241;-46
2022/06/30 02:37:15;;;;;;;16.73;14.13;;;;;;;;;;1853421;76;26342;-44
2022/06/30 02:39:43;;;;;;;16.25;13.60;;;;;;;;;;1838206;76;26248;-49
2022/06/30 02:42:10;;;;;;;17.45;13.93;;;;;;;;;;1856773;76;26225;-59
2022/06/30 02:44:38;;;;;;;17.60;13.83;;;;;;;;;;1850857;76;26261;-47
2022/06/30 02:47:05;;;;;;;14.78;13.18;;;;;;;;;;1845784;76;26770;-51
2022/06/30 02:49:32;;;;;;;15.13;13.35;;;;;;;;;;1856885;76;26265;-44
2022/06/30 02:52:00;;;;;;;15.32;13.48;;;;;;;;;;1856472;76;26342;-45
2022/06/30 02:54:27;;;;;;;17.80;14.50;;;;;;;;;;1857228;77;26815;-49
2022/06/30 02:56:54;;;;;;;16.48;14.18;;;;;;;;;;1857785;76;26246;-46
2022/06/30 02:59:22;;;;;;;16.23;13.20;;;;;;;;;;1856302;77;26242;-46
2022/06/30 03:01:49;;;;;;;17.30;14.33;;;;;;;;;;1856863;76;26265;-47
2022/06/30 03:04:18;;;;;;;16.25;14.05;;;;;;;;;;1856299;76;26755;-44
2022/06/30 03:06:45;;;;;;;16.60;13.98;;;;;;;;;;1848447;77;26297;-45
2022/06/30 03:09:12;;;;;;;14.85;13.22;;;;;;;;;;1845750;76;26696;-48
2022/06/30 03:11:40;;;;;;;15.15;13.55;;;;;;;;;;1848565;76;26245;-43
2022/06/30 03:14:07;;;;;;;16.75;13.75;;;;;;;;;;1828184;77;26339;-45
2022/06/30 03:16:34;;;;;;;17.82;13.90;;;;;;;;;;1850335;76;26277;-47
2022/06/30 03:19:02;;;;;;;16.50;14.28;;;;;;;;;;1843042;77;26214;-44
2022/06/30 03:21:29;;;;;;;15.08;13.48;;;;;;;;;;1846834;76;26647;-44
2022/06/30 03:23:56;;;;;;;18.17;14.47;;;;;;;;;;1847673;76;26315;-44
2022/06/30 03:26:24;;;;;;;14.90;13.25;;;;;;;;;;1833005;77;26803;-48
2022/06/30 03:28:51;;;;;;;14.98;13.20;;;;;;;;;;1835243;76;26273;-44
2022/06/30 03:31:18;;;;;;;16.37;13.70;;;;;;;;;;1839595;76;26259;-47
2022/06/30 03:33:46;;;;;;;17.32;14.68;;;;;;;;;;1834392;77;26202;-44
2022/06/30 03:36:13;;;;;;;16.57;14.13;;;;;;;;;;1842311;76;26604;-46
2022/06/30 03:38:40;;;;;;;17.40;14.68;;;;;;;;;;1855736;76;26257;-45
2022/06/30 03:41:08;;;;;;;17.45;14.25;;;;;;;;;;1866787;76;26972;-46
2022/06/30 03:43:35;;;;;;;15.43;13.50;;;;;;;;;;1845310;76;26512;-45
2022/06/30 03:46:02;;;;;;;15.00;13.08;;;;;;;;;;1848615;77;26241;-49
2022/06/30 03:48:30;;;;;;;15.95;14.23;;;;;;;;;;1845794;77;26250;-46
2022/06/30 03:50:57;;;;;;;15.28;13.65;;;;;;;;;;1845357;76;26763;-44
2022/06/30 03:53:24;;;;;;;14.38;12.43;;;;;;;;;;1833065;76;26305;-48
2022/06/30 03:55:52;;;;;;;14.15;12.68;;;;;;;;;;1841781;77;26202;-47
2022/06/30 03:58:19;;;;;;;13.75;12.35;;;;;;;;;;1857014;76;26253;-43
2022/06/30 04:00:46;;;;;;;14.10;12.23;;;;;;;;;;1850900;76;26329;-47
2022/06/30 04:03:14;;;;;;;13.30;12.00;;;;;;;;;;1844639;76;26323;-46
2022/06/30 04:05:41;;;;;;;13.30;12.00;;;;;;;;;;1847110;77;27059;-43
2022/06/30 04:08:08;;;;;;;13.00;11.10;;;;;;;;;;1847941;76;26720;-45
2022/06/30 04:10:36;;;;;;;13.20;11.90;;;;;;;;;;1848012;77;26324;-56
2022/06/30 04:13:03;;;;;;;12.65;11.43;;;;;;;;;;1855070;76;26308;-44
2022/06/30 04:15:31;;;;;;;12.47;11.28;;;;;;;;;;1853314;76;26311;-45
2022/06/30 04:17:58;;;;;;;13.58;12.18;;;;;;;;;;1848359;77;26270;-45
2022/06/30 04:20:25;;;;;;;12.58;11.28;;;;;;;;;;1854535;76;26284;-53
2022/06/30 04:22:53;;;;;;;12.85;11.55;;;;;;;;;;1855817;76;26265;-49
2022/06/30 04:25:21;;;;;;;12.90;11.68;;;;;;;;;;1847841;76;26347;-44
2022/06/30 04:27:50;;;;;;;12.68;11.38;;;;;;;;;;1845753;76;26251;-44
2022/06/30 04:32:37;;;;;;;12.90;11.60;;;;;;;;;;1850417;76;26699;-44
2022/06/30 04:32:46;;;;;;;12.68;11.48;;;;;;;;;;1843977;76;26733;-44
2022/06/30 04:35:14;;;;;;;12.75;11.53;;;;;;;;;;1850588;76;26754;-46
2022/06/30 04:37:41;;;;;;;13.58;12.18;;;;;;;;;;1847454;76;26206;-46
2022/06/30 04:42:55;;;;;;;13.28;11.88;;;;;;;;;;1848362;76;26568;-48
2022/06/30 04:45:22;;;;;;;12.80;11.60;;;;;;;;;;1850214;76;26250;-44
2022/06/30 04:47:49;;;;;;;12.60;11.30;;;;;;;;;;1844784;76;26250;-46
2022/06/30 04:50:16;;;;;;;13.35;12.05;;;;;;;;;;1847285;77;26289;-46
2022/06/30 04:52:44;;;;;;;12.93;11.63;;;;;;;;;;1863992;76;26289;-44
2022/06/30 04:55:11;;;;;;;13.72;12.30;;;;;;;;;;1849792;76;26328;-53
2022/06/30 04:57:38;;;;;;;12.73;11.40;;;;;;;;;;1846146;76;26781;-44
2022/06/30 05:00:07;;;;;;;13.90;12.40;;;;;;;;;;1853619;76;26321;-44
2022/06/30 05:02:34;;;;;;;13.13;11.73;;;;;;;;;;1849794;76;26273;-46
2022/06/30 05:05:02;;;;;;;13.40;12.00;;;;;;;;;;1841192;76;26317;-45
2022/06/30 05:07:29;;;;;;;14.60;12.90;;;;;;;;;;1846248;76;26313;-44
2022/06/30 05:09:56;;;;;;;13.48;12.10;;;;;;;;;;1840723;76;27293;-55
2022/06/30 05:12:24;;;;;;;14.38;12.15;;;;;;;;;;1844719;76;26281;-48
2022/06/30 05:14:51;;;;;;;13.58;11.78;;;;;;;;;;1847792;77;26289;-47
2022/06/30 05:17:19;;;;;;;13.48;12.07;;;;;;;;;;1849441;76;26311;-50
2022/06/30 05:19:47;;;;;;;13.20;11.83;;;;;;;;;;1849665;76;26269;-46
2022/06/30 05:22:14;;;;;;;14.18;11.75;;;;;;;;;;1848882;76;26339;-47
2022/06/30 05:27:27;;;;;;;12.73;11.20;;;;;;;;;;1847949;76;26792;-44
2022/06/30 05:29:55;;;;;;;15.05;11.48;;;;;;;;;;1846043;76;26648;-49
2022/06/30 05:32:22;;;;;;;12.65;11.35;;;;;;;;;;1846596;76;26278;-47
2022/06/30 05:34:50;;;;;;;12.20;11.00;;;;;;;;;;1850840;76;26748;-50
2022/06/30 05:37:18;;;;;;;12.98;11.48;;;;;;;;;;1847812;76;26331;-48
2022/06/30 05:39:45;;;;;;;12.82;11.45;;;;;;;;;;1848106;77;26692;-47
2022/06/30 05:42:13;;;;;;;12.30;11.10;;;;;;;;;;1847788;76;26281;-47
2022/06/30 05:44:40;;;;;;;11.90;10.70;;;;;;;;;;1847738;76;26249;-45
2022/06/30 05:47:07;;;;;;;13.40;12.00;;;;;;;;;;1844802;76;26339;-48
2022/06/30 05:49:35;;;;;;;11.08;9.98;;;;;;;;;;1843726;77;26730;-46
2022/06/30 05:52:02;;;;;;;10.03;9.03;;;;;;;;;;1845293;76;26214;-44
2022/06/30 05:54:29;;;;;;;10.60;9.55;;;;;;;;;;1847713;77;26276;-47
2022/06/30 05:56:58;;;;;;;12.03;10.88;;;;;;;;;;1850744;76;26308;-49
2022/06/30 05:59:26;;;;;;;12.90;10.58;;;;;;;;;;1847644;77;26194;-46
2022/06/30 06:01:53;;;;;;;11.78;10.60;;;;;;;;;;1846895;76;26268;-50
2022/06/30 06:04:21;;;;;;;12.13;10.70;;;;;;;;;;1848119;77;26246;-46
2022/06/30 06:06:48;;;;;;;12.80;10.93;;;;;;;;;;1844792;76;26304;-45
2022/06/30 06:09:15;;;;;;;12.88;10.45;;;;;;;;;;1858664;75;26296;-48
2022/06/30 06:11:42;;;;;;;12.15;10.95;;;;;;;;;;1864480;75;26261;-47
2022/06/30 06:14:10;;;;;;;12.25;10.98;;;;;;;;;;1861830;76;26382;-45
2022/06/30 06:16:37;;;;;;;16.35;12.13;;;;;;;;;;1855720;76;25695;-47
2022/06/30 06:19:04;;;;;;;13.30;11.95;;;;;;;;;;1860675;77;26323;-44
2022/06/30 06:21:34;;;;;;;15.28;12.43;;;;;;;;;;1862922;77;26644;-47
2022/06/30 06:24:01;;;;;;;15.15;13.22;;;;;;;;;;1865831;75;26298;-46
2022/06/30 06:26:28;;;;;;;16.07;13.00;;;;;;;;;;1860391;75;26310;-44
2022/06/30 06:29:08;;;;;;;15.13;12.58;;;;;;;;;;1858007;76;26241;-45
2022/06/30 06:31:37;;;;;;;14.30;12.80;;;;;;;;;;1866302;75;26257;-46
2022/06/30 06:34:05;;;;;;;15.58;13.48;;;;;;;;;;1869177;76;26233;-48
2022/06/30 06:36:33;;;;;;;14.40;12.90;;;;;;;;;;1862843;77;26723;-45
2022/06/30 06:39:00;;;;;;;13.75;12.28;;;;;;;;;;1863880;76;26371;-49
2022/06/30 06:41:27;;;;;;;13.68;12.13;;;;;;;;;;1862227;75;26288;-51
2022/06/30 06:43:55;;;;;;;13.65;12.23;;;;;;;;;;1877399;75;26735;-49
2022/06/30 06:46:26;;;;;;;14.73;12.18;;;;;;;;;;1858314;75;26350;-47
2022/06/30 06:48:51;;;;;;;18.52;12.78;;;;;;;;;;1855186;75;26321;-45
2022/06/30 06:51:18;;;;;;;13.25;11.73;;;;;;;;;;1856688;75;26301;-46
2022/06/30 06:53:46;;;;;;;12.43;11.18;;;;;;;;;;1863280;75;27224;-52
2022/06/30 06:56:13;;;;;;;12.88;11.57;;;;;;;;;;1861915;76;27201;-48
2022/06/30 06:58:41;;;;;;;12.63;11.33;;;;;;;;;;1865157;76;26324;-49
2022/06/30 07:01:08;;;;;;;13.48;10.88;;;;;;;;;;1863710;75;26334;-47
2022/06/30 07:03:36;;;;;;;11.80;10.60;;;;;;;;;;1864227;76;26261;-45
2022/06/30 07:06:03;;;;;;;12.05;10.95;;;;;;;;;;1860420;75;27514;-47
2022/06/30 07:08:30;;;;;;;10.85;9.85;;;;;;;;;;1853145;75;26302;-47
2022/06/30 07:10:59;;;;;;;12.68;10.32;;;;;;;;;;1856888;76;26260;-48
2022/06/30 07:13:27;;;;;;;11.00;9.95;;;;;;;;;;1844047;76;26219;-48
2022/06/30 07:15:54;;;;;;;10.90;9.78;;;;;;;;;;1847267;76;26325;-45
2022/06/30 07:18:22;;;;;;;15.85;9.40;;;;;;;;;;1848759;77;26363;-52
2022/06/30 07:20:50;;;;;;;10.00;9.10;;;;;;;;;;1845007;76;26305;-48
2022/06/30 07:23:17;;;;;;;10.18;9.18;;;;;;;;;;1837321;76;26263;-45
2022/06/30 07:25:44;;;;;;;9.63;8.83;;;;;;;;;;1847184;77;26736;-48
2022/06/30 07:28:12;;;;;;;9.15;8.35;;;;;;;;;;1848184;77;26245;-52
2022/06/30 07:30:40;;;;;;;10.00;9.00;;;;;;;;;;1853602;76;26916;-52
2022/06/30 07:33:07;;;;;;;9.35;8.55;;;;;;;;;;1850627;76;26245;-58
2022/06/30 07:35:34;;;;;;;9.28;8.48;;;;;;;;;;1847633;77;26229;-44
2022/06/30 07:38:01;;;;;;;9.33;8.48;;;;;;;;;;1846965;77;26269;-43
2022/06/30 07:40:29;;;;;;;8.68;7.97;;;;;;;;;;1851241;77;26293;-54
2022/06/30 07:42:56;;;;;;;8.43;7.72;;;;;;;;;;1833849;76;26261;-53
2022/06/30 07:45:23;;;;;;;8.90;8.03;;;;;;;;;;1818100;77;26929;-50
2022/06/30 07:47:51;;;;;;;8.78;7.90;;;;;;;;;;1843997;77;26233;-44
2022/06/30 07:50:19;;;;;;;8.08;7.37;;;;;;;;;;1847477;76;26716;-48
2022/06/30 07:52:46;;;;;;;8.58;7.87;;;;;;;;;;1850488;76;26269;-57
2022/06/30 07:55:14;;;;;;;7.95;7.35;;;;;;;;;;1844006;76;26242;-47
2022/06/30 07:57:45;;;;;;;8.40;7.70;;;;;;;;;;1850043;77;26634;-48
2022/06/30 08:00:12;;;;;;;8.33;7.60;;;;;;;;;;1847071;77;26333;-48
2022/06/30 08:02:39;;;;;;;7.97;7.28;;;;;;;;;;1853119;76;26371;-45
2022/06/30 08:05:07;;;;;;;7.78;7.17;;;;;;;;;;1854160;77;26226;-50
2022/06/30 08:07:34;;;;;;;7.97;7.20;;;;;;;;;;1851948;76;26358;-48
2022/06/30 08:10:02;;;;;;;7.47;6.87;;;;;;;;;;1864934;76;26292;-45
2022/06/30 08:12:29;;;;;;;8.23;7.40;;;;;;;;;;1865658;75;26621;-46
2022/06/30 08:14:57;;;;;;;7.90;7.30;;;;;;;;;;1870508;75;26253;-49
2022/06/30 08:17:24;;;;;;;7.78;7.00;;;;;;;;;;1864473;76;26760;-51
2022/06/30 08:19:53;;;;;;;11.38;6.95;;;;;;;;;;1861026;76;26573;-48
2022/06/30 08:22:20;;;;;;;7.62;6.83;;;;;;;;;;1861303;76;26331;-41
2022/06/30 08:24:47;;;;;;;7.45;6.85;;;;;;;;;;1863561;77;26260;-43
2022/06/30 08:27:14;;;;;;;7.33;6.67;;;;;;;;;;1860030;75;26249;-47
2022/06/30 08:29:42;;;;;;;7.25;6.65;;;;;;;;;;1864194;75;26323;-42
2022/06/30 08:32:09;;;;;;;6.90;6.30;;;;;;;;;;1860728;75;26362;-48
2022/06/30 08:34:36;;;;;;;6.72;6.22;;;;;;;;;;1858824;76;26527;-44
2022/06/30 08:37:04;;;;;;;6.87;6.35;;;;;;;;;;1857819;76;26248;-41
2022/06/30 08:42:18;;;;;;;6.42;5.92;;;;;;;;;;1863803;77;26225;-41
2022/06/30 08:45:13;;;;;;;6.50;6.00;;;;;;;;;;1863105;75;26197;-42
2022/06/30 08:47:15;;;;;;;6.72;6.00;;;;;;;;;;1859224;75;26313;-44
2022/06/30 08:49:42;;;;;;;6.40;5.90;;;;;;;;;;1861003;76;26728;-50
2022/06/30 08:52:11;;;;;;;5.92;5.53;;;;;;;;;;1860396;77;26190;-48
2022/06/30 08:54:38;;;;;;;6.28;5.67;;;;;;;;;;1862466;76;26249;-44
2022/06/30 08:57:07;;;;;;;6.10;5.60;;;;;;;;;;1862049;77;26692;-43
2022/06/30 08:59:35;;;;;;;5.90;5.50;;;;;;;;;;1863086;77;26699;-44
2022/06/30 09:02:02;;;;;;;5.90;5.50;;;;;;;;;;1862527;75;26370;-45
2022/06/30 09:04:31;;;;;;;5.95;5.55;;;;;;;;;;1868948;75;26331;-57
2022/06/30 09:06:59;;;;;;;5.70;5.30;;;;;;;;;;1866848;76;26341;-42
2022/06/30 09:09:26;;;;;;;5.22;4.90;;;;;;;;;;1863377;75;26390;-45
2022/06/30 09:11:55;;;;;;;5.33;5.00;;;;;;;;;;1863353;75;26245;-44
2022/06/30 09:14:32;;;;;;;5.35;5.05;;;;;;;;;;1866987;75;26248;-40
2022/06/30 09:17:01;;;;;;;5.47;5.08;;;;;;;;;;1863882;77;26275;-41
2022/06/30 09:19:29;;;;;;;4.97;4.67;;;;;;;;;;1854420;76;26277;-42
2022/06/30 09:22:07;;;;;;;4.80;4.50;;;;;;;;;;1864130;76;26273;-57
2022/06/30 09:24:35;;;;;;;5.12;4.80;;;;;;;;;;1860763;75;26705;-41
2022/06/30 09:27:12;;;;;;;4.80;4.40;;;;;;;;;;1865904;75;26252;-48
2022/06/30 09:29:50;;;;;;;4.97;4.67;;;;;;;;;;1847227;77;26257;-42
2022/06/30 09:32:17;;;;;;;4.62;4.33;;;;;;;;;;1863548;77;26792;-42
2022/06/30 09:34:45;;;;;;;5.08;4.78;;;;;;;;;;1871364;75;26182;-52
2022/06/30 09:37:20;;;;;;;4.87;4.58;;;;;;;;;;1865120;77;26719;-47
2022/06/30 09:39:47;;;;;;;4.75;4.45;;;;;;;;;;1867905;76;26268;-48
2022/06/30 09:42:15;;;;;;;4.53;4.22;;;;;;;;;;1863674;75;26637;-48
2022/06/30 09:44:44;;;;;;;4.22;3.92;;;;;;;;;;1862903;75;26350;-44
2022/06/30 09:47:11;;;;;;;4.50;4.30;;;;;;;;;;1844466;77;26608;-44
2022/06/30 09:49:42;;;;;;;4.28;4.08;;;;;;;;;;1855707;77;26281;-41
2022/06/30 09:52:23;;;;;;;4.65;4.35;;;;;;;;;;1862759;77;26751;-42
2022/06/30 09:55:00;;;;;;;4.50;4.30;;;;;;;;;;1842348;75;26245;-44
2022/06/30 09:57:29;;;;;;;4.47;4.28;;;;;;;;;;1871051;75;26318;-42
2022/06/30 10:00:00;;;;;;;3.92;3.72;;;;;;;;;;1860211;76;26324;-46
2022/06/30 10:02:32;;;;;;;4.45;4.20;;;;;;;;;;1861607;75;26668;-41
2022/06/30 10:05:00;;;;;;;4.30;4.00;;;;;;;;;;1876075;75;26243;-47
2022/06/30 10:07:27;;;;;;;4.05;3.85;;;;;;;;;;1874088;75;26256;-43
2022/06/30 10:09:54;;;;;;;3.98;3.67;;;;;;;;;;1853540;77;26304;-42
2022/06/30 10:12:23;;;;;;;3.90;3.70;;;;;;;;;;1839175;77;26249;-41
2022/06/30 10:14:52;;;;;;;4.30;4.10;;;;;;;;;;1866139;76;26616;-42
2022/06/30 10:17:20;;;;;;;3.95;3.75;;;;;;;;;;1844775;77;26776;-45
2022/06/30 10:19:49;;;;;;;4.20;4.00;;;;;;;;;;1845191;77;26348;-49
2022/06/30 10:22:16;;;;;;;3.98;3.77;;;;;;;;;;1845576;77;26321;-45
2022/06/30 10:24:45;;;;;;;3.80;3.60;;;;;;;;;;1846504;76;26261;-41
2022/06/30 10:27:14;;;;;;;3.95;3.75;;;;;;;;;;1853889;77;26906;-48
2022/06/30 10:29:43;;;;;;;3.62;3.52;;;;;;;;;;1847001;77;26782;-43
2022/06/30 10:32:12;;;;;;;4.17;3.98;;;;;;;;;;1855718;76;26247;-48
2022/06/30 10:34:43;;;;;;;3.62;3.50;;;;;;;;;;1841599;76;26250;-46
2022/06/30 10:37:12;;;;;;;3.65;3.55;;;;;;;;;;1841183;76;26601;-48
2022/06/30 10:39:43;;;;;;;3.47;3.37;;;;;;;;;;1848046;77;26237;-42
2022/06/30 10:42:11;;;;;;;3.80;3.60;;;;;;;;;;1846586;77;26277;-50
2022/06/30 10:44:38;;;;;;;3.62;3.42;;;;;;;;;;1849309;76;26814;-45
2022/06/30 10:47:06;;;;;;;3.50;3.40;;;;;;;;;;1841796;77;26336;-41
2022/06/30 10:49:35;;;;;;;3.75;3.55;;;;;;;;;;1846798;77;26495;-47
2022/06/30 10:52:22;;;;;;;3.70;3.58;;;;;;;;;;1846568;77;26614;-48
2022/06/30 10:54:49;;;;;;;3.45;3.35;;;;;;;;;;1845816;76;26262;-44
2022/06/30 10:57:17;;;;;;;3.40;3.30;;;;;;;;;;1853685;76;26198;-44
2022/06/30 10:59:44;;;;;;;3.35;3.25;;;;;;;;;;1850169;76;26327;-43
2022/06/30 11:02:16;;;;;;;3.52;3.42;;;;;;;;;;1850487;76;26322;-44
2022/06/30 11:04:44;;;;;;;3.37;3.27;;;;;;;;;;1843699;76;26568;-46
2022/06/30 11:07:12;;;;;;;3.90;3.70;;;;;;;;;;1848606;76;26245;-46
2022/06/30 11:09:47;;;;;;;3.42;3.33;;;;;;;;;;1847252;76;26587;-45
2022/06/30 11:12:16;;;;;;;3.40;3.30;;;;;;;;;;1840671;77;26795;-44
2022/06/30 11:14:48;;;;;;;3.45;3.33;;;;;;;;;;1842101;77;26249;-46
2022/06/30 11:17:20;;;;;;;3.35;3.25;;;;;;;;;;1846555;76;26388;-47
2022/06/30 11:19:48;;;;;;;3.40;3.30;;;;;;;;;;1847061;77;26273;-44
2022/06/30 11:22:16;;;;;;;3.08;2.98;;;;;;;;;;1849985;77;26741;-49
2022/06/30 11:24:48;;;;;;;3.83;3.62;;;;;;;;;;1856259;76;26222;-41
2022/06/30 11:27:25;;;;;;;3.40;3.30;;;;;;;;;;1846713;76;26315;-46
2022/06/30 11:29:49;;;;;;;3.40;3.30;;;;;;;;;;1849195;76;26323;-53
2022/06/30 11:32:17;;;;;;;3.77;3.58;;;;;;;;;;1847182;77;26241;-52
2022/06/30 11:34:45;;;;;;;3.60;3.42;;;;;;;;;;1843184;77;26654;-43
2022/06/30 11:37:13;;;;;;;3.60;3.40;;;;;;;;;;1848995;77;26651;-43
2022/06/30 11:39:41;;;;;;;3.50;3.30;;;;;;;;;;1847823;77;26297;-57
2022/06/30 11:42:11;;;;;;;3.45;3.35;;;;;;;;;;1842465;77;26234;-46
2022/06/30 11:44:38;;;;;;;3.95;3.75;;;;;;;;;;1827675;77;26324;-49
2022/06/30 11:47:07;;;;;;;3.50;3.40;;;;;;;;;;1847718;77;26644;-50
2022/06/30 11:49:45;;;;;;;3.47;3.37;;;;;;;;;;1846087;77;26308;-44
2022/06/30 11:52:15;;;;;;;3.90;3.70;;;;;;;;;;1832731;77;26290;-44
2022/06/30 11:54:49;;;;;;;3.52;3.37;;;;;;;;;;1847031;77;26265;-51
2022/06/30 11:57:17;;;;;;;3.40;3.20;;;;;;;;;;1843139;76;26759;-47
2022/06/30 11:59:45;;;;;;;3.47;3.37;;;;;;;;;;1844545;77;26242;-41
2022/06/30 12:02:14;;;;;;;3.58;3.40;;;;;;;;;;1846977;76;26627;-50
2022/06/30 12:04:42;;;;;;;3.98;3.77;;;;;;;;;;1826002;77;26751;-47
2022/06/30 12:07:11;;;;;;;3.50;3.35;;;;;;;;;;1850677;77;26328;-51
2022/06/30 12:09:39;;;;;;;3.60;3.50;;;;;;;;;;1850944;76;26745;-42
2022/06/30 12:12:08;;;;;;;3.47;3.37;;;;;;;;;;1861530;75;26288;-47
2022/06/30 12:14:41;;;;;;;3.87;3.67;;;;;;;;;;1865198;75;26798;-42
2022/06/30 12:17:10;;;;;;;3.40;3.30;;;;;;;;;;1872086;75;26439;-52
2022/06/30 12:19:38;;;;;;;3.77;3.58;;;;;;;;;;1865551;76;26238;-54
2022/06/30 12:22:08;;;;;;;3.72;3.52;;;;;;;;;;1861484;76;26284;-49
2022/06/30 12:24:36;;;;;;;3.77;3.58;;;;;;;;;;1862312;76;26345;-47
2022/06/30 12:27:03;;;;;;;3.85;3.62;;;;;;;;;;1864099;75;26320;-53
2022/06/30 12:29:30;;;;;;;3.92;3.72;;;;;;;;;;1861024;76;26268;-45
2022/06/30 12:32:05;;;;;;;3.55;3.45;;;;;;;;;;1863853;77;26763;-43
2022/06/30 12:34:33;;;;;;;3.80;3.60;;;;;;;;;;1859176;76;26260;-48
2022/06/30 12:37:02;;;;;;;4.17;3.98;;;;;;;;;;1863512;76;26230;-42
2022/06/30 12:39:32;;;;;;;3.90;3.70;;;;;;;;;;1862298;75;26268;-43
2022/06/30 12:42:01;;;;;;;3.92;3.75;;;;;;;;;;1861442;76;26281;-44
2022/06/30 12:44:34;;;;;;;4.12;3.92;;;;;;;;;;1856390;75;26280;-49
2022/06/30 12:47:09;;;;;;;3.77;3.62;;;;;;;;;;1850168;77;26309;-42
2022/06/30 12:49:37;;;;;;;4.10;3.90;;;;;;;;;;1861504;75;26374;-66
2022/06/30 12:52:18;;;;;;;4.00;3.80;;;;;;;;;;1858109;76;26265;-47
2022/06/30 12:54:51;;;;;;;4.00;3.80;;;;;;;;;;1862794;76;26236;-47
2022/06/30 12:57:18;;;;;;;4.17;3.98;;;;;;;;;;1852824;76;26747;-47
2022/06/30 12:59:48;;;;;;;3.90;3.70;;;;;;;;;;1864337;76;26238;-42
2022/06/30 13:02:16;;;;;;;4.10;3.90;;;;;;;;;;1872346;75;26421;-52
2022/06/30 13:04:55;;;;;;;4.03;3.83;;;;;;;;;;1865112;75;26269;-52
2022/06/30 13:07:22;;;;;;;4.17;3.98;;;;;;;;;;1863800;76;26520;-43
2022/06/30 13:09:50;;;;;;;4.15;3.95;;;;;;;;;;1863308;76;26760;-41
2022/06/30 13:12:18;;;;;;;4.33;4.12;;;;;;;;;;1852121;76;26278;-43
2022/06/30 13:14:45;;;;;;;3.87;3.67;;;;;;;;;;1843668;76;26330;-44
2022/06/30 13:17:13;;;;;;;4.12;3.92;;;;;;;;;;1848520;77;26752;-43
2022/06/30 13:19:40;;;;;;;4.03;3.83;;;;;;;;;;1849058;77;26268;-45
2022/06/30 13:22:07;;;;;;;4.60;4.35;;;;;;;;;;1846434;76;26847;-41
2022/06/30 13:24:35;;;;;;;4.33;4.12;;;;;;;;;;1860896;76;26342;-51
2022/06/30 13:27:03;;;;;;;4.30;4.10;;;;;;;;;;1847851;76;26282;-44
2022/06/30 13:29:31;;;;;;;4.42;4.22;;;;;;;;;;1847562;77;26286;-47
2022/06/30 13:31:58;;;;;;;4.20;4.00;;;;;;;;;;1848529;77;26261;-41
2022/06/30 13:34:26;;;;;;;4.47;4.28;;;;;;;;;;1847182;77;26206;-41
2022/06/30 13:36:53;;;;;;;4.30;4.10;;;;;;;;;;1834877;76;26658;-48
2022/06/30 13:39:20;;;;;;;4.33;4.12;;;;;;;;;;1863404;76;26771;-45
2022/06/30 13:41:48;;;;;;;4.10;3.90;;;;;;;;;;1847520;77;26793;-42
2022/06/30 13:44:15;;;;;;;4.30;4.10;;;;;;;;;;1838017;76;26292;-50
2022/06/30 13:46:44;;;;;;;4.50;4.20;;;;;;;;;;1851371;76;26309;-46
2022/06/30 13:49:12;;;;;;;4.33;4.12;;;;;;;;;;1851832;76;26248;-44
2022/06/30 13:51:39;;;;;;;4.40;4.20;;;;;;;;;;1850243;76;26323;-45
2022/06/30 13:54:08;;;;;;;4.37;4.17;;;;;;;;;;1846995;77;26821;-44
2022/06/30 13:56:35;;;;;;;4.53;4.33;;;;;;;;;;1851840;76;26715;-62
2022/06/30 13:59:04;;;;;;;4.40;4.20;;;;;;;;;;1830359;76;26347;-43
2022/06/30 14:01:31;;;;;;;4.30;4.10;;;;;;;;;;1854695;76;26274;-44
2022/06/30 14:03:58;;;;;;;4.60;4.40;;;;;;;;;;1860062;76;26667;-46
2022/06/30 14:06:26;;;;;;;4.67;4.40;;;;;;;;;;1847726;76;26288;-46
2022/06/30 14:08:53;;;;;;;5.08;4.78;;;;;;;;;;1842750;76;26826;-46
2022/06/30 14:11:20;;;;;;;4.87;4.67;;;;;;;;;;1843235;76;26614;-51
2022/06/30 14:13:48;;;;;;;8.10;5.70;;;;;;;;;;1858757;75;26944;-44
2022/06/30 14:16:15;;;;;;;5.80;5.40;;;;;;;;;;1861377;75;27429;-47
2022/06/30 14:18:43;;;;;;;5.60;5.15;;;;;;;;;;1865155;75;26245;-46
2022/06/30 14:21:10;;;;;;;6.00;5.60;;;;;;;;;;1855581;75;26296;-49
2022/06/30 14:23:38;;;;;;;5.97;5.53;;;;;;;;;;1858677;75;26378;-52
2022/06/30 14:26:05;;;;;;;5.83;5.42;;;;;;;;;;1856654;75;26268;-48
2022/06/30 14:28:33;;;;;;;5.95;5.55;;;;;;;;;;1858822;75;26360;-45
2022/06/30 14:31:00;;;;;;;5.92;5.53;;;;;;;;;;1861263;75;26669;-53
2022/06/30 14:33:27;;;;;;;6.00;5.60;;;;;;;;;;1854433;75;26257;-51
2022/06/30 14:35:55;;;;;;;6.10;5.70;;;;;;;;;;1860073;75;26277;-53
2022/06/30 14:38:22;;;;;;;6.33;5.92;;;;;;;;;;1857268;75;26331;-47
2022/06/30 14:40:49;;;;;;;6.20;5.72;;;;;;;;;;1862398;75;26246;-46
2022/06/30 14:43:17;;;;;;;6.95;6.35;;;;;;;;;;1854258;75;26285;-48
2022/06/30 14:45:44;;;;;;;6.25;5.85;;;;;;;;;;1865003;75;26210;-48
2022/06/30 14:48:12;;;;;;;6.72;6.12;;;;;;;;;;1856103;75;26266;-53
2022/06/30 14:50:39;;;;;;;6.67;6.17;;;;;;;;;;1857897;75;26334;-46